createdAt,value
2022-08-03T00:00:53.550Z,47.68
2022-08-03T00:01:53.549Z,49.92
2022-08-03T00:02:53.672Z,52.52
2022-08-03T00:03:53.522Z,51.80
2022-08-03T00:04:53.526Z,51.95
2022-08-03T00:06:04.435Z,44.29
2022-08-03T00:06:54.501Z,58.05
2022-08-03T00:07:53.492Z,50.26
2022-08-03T00:08:53.488Z,53.81
2022-08-03T00:09:53.501Z,61.97
2022-08-03T00:10:53.488Z,56.64
2022-08-03T00:11:53.476Z,48.49
2022-08-03T00:12:53.454Z,48.47
2022-08-03T00:13:53.455Z,57.26
2022-08-03T00:14:53.442Z,54.48
2022-08-03T00:15:53.439Z,52.99
2022-08-03T00:16:53.436Z,53.97
2022-08-03T00:17:54.087Z,43.32
2022-08-03T00:18:54.409Z,43.58
2022-08-03T00:19:53.435Z,46.76
2022-08-03T00:20:53.402Z,47.62
2022-08-03T00:21:53.399Z,48.47
2022-08-03T00:22:53.386Z,56.61
2022-08-03T00:23:53.377Z,49.47
2022-08-03T00:24:53.376Z,51.13
2022-08-03T00:25:53.359Z,49.15
2022-08-03T00:26:53.359Z,46.30
2022-08-03T00:27:53.338Z,52.30
2022-08-03T00:28:53.326Z,49.04
2022-08-03T00:30:00.176Z,51.40
2022-08-03T00:30:54.326Z,50.72
2022-08-03T00:33:58.320Z,50.46
2022-08-03T00:34:57.990Z,47.46
2022-08-03T00:35:54.826Z,49.88
2022-08-03T00:36:54.812Z,48.34
2022-08-03T00:37:54.813Z,53.34
2022-08-03T00:38:54.804Z,56.14
2022-08-03T00:39:54.795Z,55.32
2022-08-03T00:40:55.783Z,54.34
2022-08-03T00:41:54.772Z,48.30
2022-08-03T00:42:54.765Z,47.49
2022-08-03T00:43:54.771Z,44.84
2022-08-03T00:44:54.747Z,49.70
2022-08-03T00:45:54.741Z,44.64
2022-08-03T00:46:54.734Z,53.13
2022-08-03T00:47:54.728Z,54.14
2022-08-03T00:48:54.828Z,52.80
2022-08-03T00:49:54.710Z,49.84
2022-08-03T00:50:54.704Z,54.65
2022-08-03T00:51:54.695Z,54.98
2022-08-03T00:52:54.690Z,45.34
2022-08-03T00:53:54.696Z,46.88
2022-08-03T00:54:54.677Z,59.78
2022-08-03T00:55:54.666Z,57.06
2022-08-03T00:57:00.272Z,59.04
2022-08-03T00:57:55.656Z,59.25
2022-08-03T00:58:54.649Z,53.74
2022-08-03T00:59:54.626Z,46.46
2022-08-03T01:00:54.690Z,57.13
2022-08-03T01:01:54.615Z,47.16
2022-08-03T01:02:54.618Z,45.10
2022-08-03T01:03:54.597Z,53.93
2022-08-03T01:04:54.590Z,51.20
2022-08-03T01:05:54.588Z,51.30
2022-08-03T01:06:54.577Z,55.16
2022-08-03T01:07:55.198Z,48.59
2022-08-03T01:08:54.561Z,45.56
2022-08-03T01:09:54.553Z,57.71
2022-08-03T01:10:54.547Z,48.55
2022-08-03T01:12:01.271Z,50.28
2022-08-03T01:12:56.520Z,48.35
2022-08-03T01:14:04.123Z,46.86
2022-08-03T01:14:55.536Z,54.99
2022-08-03T01:15:54.508Z,52.40
2022-08-03T01:16:54.501Z,55.07
2022-08-03T01:17:54.482Z,53.97
2022-08-03T01:18:54.477Z,56.87
2022-08-03T01:19:54.466Z,46.98
2022-08-03T01:20:54.456Z,49.95
2022-08-03T01:21:55.125Z,55.03
2022-08-03T01:22:54.439Z,52.30
2022-08-03T01:23:54.428Z,52.79
2022-08-03T01:24:54.427Z,52.46
2022-08-03T01:25:54.741Z,50.26
2022-08-03T01:26:54.456Z,44.72
2022-08-03T01:27:54.400Z,52.15
2022-08-03T01:28:54.411Z,54.18
2022-08-03T01:29:54.392Z,53.31
2022-08-03T01:30:54.374Z,48.89
2022-08-03T01:33:00.186Z,54.68
2022-08-03T01:33:00.952Z,49.77
2022-08-03T01:33:55.350Z,54.07
2022-08-03T01:34:54.344Z,57.73
2022-08-03T01:35:54.349Z,52.12
2022-08-03T01:36:54.335Z,51.08
2022-08-03T01:37:54.339Z,51.63
2022-08-03T01:38:54.297Z,54.88
2022-08-03T01:39:55.299Z,47.01
2022-08-03T01:40:54.306Z,45.65
2022-08-03T01:41:54.287Z,49.63
2022-08-03T01:42:54.300Z,52.65
2022-08-03T01:44:28.397Z,58.11
2022-08-03T01:44:55.265Z,53.13
2022-08-03T01:45:54.264Z,46.07
2022-08-03T01:46:54.245Z,48.13
2022-08-03T01:47:54.234Z,47.40
2022-08-03T01:48:54.271Z,57.32
2022-08-03T01:49:54.231Z,49.81
2022-08-03T01:50:54.219Z,52.83
2022-08-03T01:51:56.685Z,51.98
2022-08-03T01:52:55.194Z,50.49
2022-08-03T01:53:54.189Z,47.24
2022-08-03T01:54:54.184Z,48.15
2022-08-03T01:55:54.178Z,53.42
2022-08-03T01:56:54.173Z,55.51
2022-08-03T01:58:05.468Z,54.73
2022-08-03T01:58:55.153Z,55.91
2022-08-03T01:59:54.142Z,49.38
2022-08-03T02:00:54.185Z,55.19
2022-08-03T02:02:27.811Z,51.11
2022-08-03T02:02:55.118Z,47.36
2022-08-03T02:04:00.284Z,45.17
2022-08-03T02:04:55.101Z,54.07
2022-08-03T02:06:11.510Z,54.37
2022-08-03T02:07:01.944Z,47.82
2022-08-03T02:07:55.078Z,49.69
2022-08-03T02:08:54.085Z,49.56
2022-08-03T02:09:54.057Z,44.40
2022-08-03T02:10:54.057Z,54.28
2022-08-03T02:11:54.049Z,46.08
2022-08-03T02:12:54.036Z,46.36
2022-08-03T02:13:54.039Z,52.12
2022-08-03T02:14:54.023Z,51.62
2022-08-03T02:15:54.012Z,44.87
2022-08-03T02:16:54.007Z,48.13
2022-08-03T02:17:53.999Z,51.00
2022-08-03T02:18:53.993Z,52.90
2022-08-03T02:19:53.988Z,58.18
2022-08-03T02:20:53.972Z,51.89
2022-08-03T02:21:55.910Z,52.95
2022-08-03T02:22:54.961Z,51.05
2022-08-03T02:23:53.960Z,50.40
2022-08-03T02:24:53.950Z,46.85
2022-08-03T02:25:53.933Z,54.93
2022-08-03T02:26:53.929Z,52.56
2022-08-03T02:27:53.916Z,55.26
2022-08-03T02:28:53.913Z,55.13
2022-08-03T02:29:53.910Z,57.65
2022-08-03T02:30:54.092Z,54.49
2022-08-03T02:31:53.891Z,50.33
2022-08-03T02:32:53.885Z,57.25
2022-08-03T02:33:53.865Z,48.59
2022-08-03T02:34:53.893Z,54.62
2022-08-03T02:35:53.853Z,50.74
2022-08-03T02:36:53.846Z,55.65
2022-08-03T02:37:53.837Z,54.54
2022-08-03T02:38:53.836Z,60.97
2022-08-03T02:39:53.831Z,52.39
2022-08-03T02:40:53.821Z,56.90
2022-08-03T02:41:53.809Z,56.38
2022-08-03T02:42:53.804Z,55.89
2022-08-03T02:44:06.145Z,56.25
2022-08-03T02:44:54.791Z,50.19
2022-08-03T02:45:53.789Z,51.10
2022-08-03T02:46:53.766Z,54.66
2022-08-03T02:47:54.958Z,54.56
2022-08-03T02:48:53.783Z,48.87
2022-08-03T02:49:53.829Z,53.75
2022-08-03T02:50:53.757Z,53.55
2022-08-03T02:51:53.727Z,57.70
2022-08-03T02:52:53.720Z,61.99
2022-08-03T02:53:54.228Z,54.73
2022-08-03T02:54:53.703Z,52.28
2022-08-03T02:55:53.698Z,59.53
2022-08-03T02:56:53.694Z,54.64
2022-08-03T02:57:53.684Z,51.43
2022-08-03T02:58:53.677Z,59.41
2022-08-03T02:59:53.670Z,54.48
2022-08-03T03:00:53.710Z,49.47
2022-08-03T03:01:53.688Z,52.13
2022-08-03T03:02:53.653Z,57.71
2022-08-03T03:03:53.641Z,56.15
2022-08-03T03:05:51.792Z,57.73
2022-08-03T03:05:57.613Z,56.04
2022-08-03T03:06:54.616Z,57.86
2022-08-03T03:07:53.605Z,60.81
2022-08-03T03:08:57.916Z,60.12
2022-08-03T03:09:55.590Z,60.14
2022-08-03T03:10:55.554Z,61.67
2022-08-03T03:11:53.571Z,56.52
2022-08-03T03:12:53.564Z,55.94
2022-08-03T03:13:54.159Z,59.83
2022-08-03T03:14:54.159Z,57.71
2022-08-03T03:15:53.550Z,58.73
2022-08-03T03:16:57.966Z,62.34
2022-08-03T03:17:53.531Z,60.92
2022-08-03T03:18:53.514Z,70.57
2022-08-03T03:19:53.507Z,68.93
2022-08-03T03:20:53.512Z,68.11
2022-08-03T03:21:53.494Z,64.43
2022-08-03T03:22:53.490Z,62.57
2022-08-03T03:23:53.480Z,61.91
2022-08-03T03:24:53.478Z,60.49
2022-08-03T03:25:53.468Z,62.12
2022-08-03T03:26:53.467Z,58.11
2022-08-03T03:27:53.461Z,59.14
2022-08-03T03:28:53.442Z,57.65
2022-08-03T03:29:53.435Z,59.77
2022-08-03T03:30:53.660Z,60.51
2022-08-03T03:31:53.425Z,58.25
2022-08-03T03:32:53.410Z,59.27
2022-08-03T03:33:53.406Z,58.30
2022-08-03T03:34:53.395Z,62.93
2022-08-03T03:35:53.389Z,63.94
2022-08-03T03:36:53.387Z,61.77
2022-08-03T03:37:53.386Z,63.47
2022-08-03T03:38:53.666Z,63.76
2022-08-03T03:39:53.352Z,62.28
2022-08-03T03:40:53.351Z,63.43
2022-08-03T03:41:53.683Z,57.73
2022-08-03T03:42:53.337Z,58.34
2022-08-03T03:43:54.241Z,63.54
2022-08-03T03:44:53.320Z,63.10
2022-08-03T03:45:53.298Z,65.59
2022-08-03T03:46:53.305Z,62.40
2022-08-03T03:47:53.283Z,60.53
2022-08-03T03:48:53.334Z,60.58
2022-08-03T03:49:53.269Z,65.84
2022-08-03T03:50:53.262Z,63.50
2022-08-03T03:51:53.260Z,58.87
2022-08-03T03:52:53.247Z,60.45
2022-08-03T03:53:53.242Z,62.54
2022-08-03T03:54:56.327Z,61.33
2022-08-03T03:56:01.614Z,65.43
2022-08-03T03:56:54.219Z,62.57
2022-08-03T03:57:53.209Z,58.53
2022-08-03T03:58:53.204Z,61.45
2022-08-03T03:59:53.185Z,62.15
2022-08-03T04:00:53.227Z,66.41
2022-08-03T04:01:58.905Z,66.10
2022-08-03T04:02:54.165Z,62.27
2022-08-03T04:03:53.161Z,64.39
2022-08-03T04:04:53.148Z,63.07
2022-08-03T04:05:53.146Z,63.40
2022-08-03T04:06:53.133Z,69.66
2022-08-03T04:07:53.130Z,68.33
2022-08-03T04:08:53.125Z,62.82
2022-08-03T04:09:53.112Z,60.50
2022-08-03T04:10:53.108Z,61.38
2022-08-03T04:11:53.098Z,60.80
2022-08-03T04:12:53.094Z,61.40
2022-08-03T04:13:53.078Z,62.85
2022-08-03T04:14:53.083Z,59.55
2022-08-03T04:15:53.070Z,61.31
2022-08-03T04:16:53.055Z,63.59
2022-08-03T04:17:53.051Z,62.02
2022-08-03T04:18:53.054Z,64.49
2022-08-03T04:19:53.041Z,62.51
2022-08-03T04:20:53.039Z,64.17
2022-08-03T04:21:53.013Z,63.43
2022-08-03T04:22:53.013Z,64.31
2022-08-03T04:23:53.011Z,64.74
2022-08-03T04:24:52.994Z,63.15
2022-08-03T04:25:53.002Z,63.75
2022-08-03T04:26:53.087Z,65.78
2022-08-03T04:28:07.714Z,62.63
2022-08-03T04:28:53.965Z,63.65
2022-08-03T04:29:52.957Z,59.16
2022-08-03T04:30:52.946Z,63.91
2022-08-03T04:31:52.944Z,58.96
2022-08-03T04:32:53.757Z,63.49
2022-08-03T04:33:52.930Z,62.48
2022-08-03T04:34:52.922Z,65.38
2022-08-03T04:36:01.189Z,65.37
2022-08-03T04:36:53.907Z,62.87
2022-08-03T04:37:52.894Z,62.82
2022-08-03T04:38:52.884Z,61.76
2022-08-03T04:39:53.755Z,62.66
2022-08-03T04:40:52.875Z,63.63
2022-08-03T04:42:07.579Z,61.58
2022-08-03T04:42:53.851Z,60.59
2022-08-03T04:43:52.845Z,62.37
2022-08-03T04:44:55.586Z,59.40
2022-08-03T04:45:53.838Z,62.75
2022-08-03T04:46:52.921Z,62.09
2022-08-03T04:47:52.817Z,60.34
2022-08-03T04:48:52.889Z,59.10
2022-08-03T04:49:53.800Z,65.05
2022-08-03T04:52:59.295Z,63.71
2022-08-03T04:53:59.283Z,61.60
2022-08-03T04:55:00.395Z,62.90
2022-08-03T04:56:01.537Z,62.65
2022-08-03T04:57:00.360Z,64.68
2022-08-03T04:58:00.341Z,61.93
2022-08-03T04:59:00.332Z,61.65
2022-08-03T05:00:03.061Z,62.77
2022-08-03T05:01:01.317Z,61.92
2022-08-03T05:02:00.410Z,61.28
2022-08-03T05:03:00.303Z,64.04
2022-08-03T05:04:00.298Z,59.37
2022-08-03T05:05:00.332Z,62.79
2022-08-03T05:06:09.858Z,60.55
2022-08-03T05:07:11.593Z,62.10
2022-08-03T05:08:01.266Z,63.16
2022-08-03T05:09:00.290Z,62.24
2022-08-03T05:10:02.948Z,60.24
2022-08-03T05:11:00.246Z,60.26
2022-08-03T05:12:00.236Z,62.77
2022-08-03T05:13:00.242Z,63.89
2022-08-03T05:14:00.236Z,63.91
2022-08-03T05:15:00.236Z,62.50
2022-08-03T05:16:00.206Z,61.06
2022-08-03T05:17:00.203Z,61.34
2022-08-03T05:18:00.208Z,62.28
2022-08-03T05:19:00.225Z,63.81
2022-08-03T05:20:00.188Z,64.28
2022-08-03T05:21:00.183Z,66.61
2022-08-03T05:22:00.165Z,63.77
2022-08-03T05:23:00.178Z,63.91
2022-08-03T05:24:00.149Z,63.92
2022-08-03T05:25:00.154Z,64.18
2022-08-03T05:26:00.967Z,62.23
2022-08-03T05:27:00.122Z,61.06
2022-08-03T05:28:00.126Z,65.88
2022-08-03T05:29:00.124Z,63.66
2022-08-03T05:30:31.022Z,63.63
2022-08-03T05:31:01.092Z,62.28
2022-08-03T05:32:01.858Z,62.72
2022-08-03T05:33:00.088Z,62.43
2022-08-03T05:34:00.066Z,60.48
2022-08-03T05:35:00.962Z,63.97
2022-08-03T05:36:04.178Z,63.61
2022-08-03T05:37:00.073Z,64.63
2022-08-03T05:38:00.043Z,64.51
2022-08-03T05:39:02.730Z,62.59
2022-08-03T05:40:01.040Z,61.52
2022-08-03T05:41:21.188Z,62.36
2022-08-03T05:42:01.011Z,62.80
2022-08-03T05:43:00.012Z,61.09
2022-08-03T05:44:00.000Z,63.70
2022-08-03T05:44:59.993Z,62.87
2022-08-03T05:46:12.312Z,62.96
2022-08-03T05:47:00.978Z,64.47
2022-08-03T05:47:59.962Z,61.07
2022-08-03T05:49:00.016Z,62.99
2022-08-03T05:49:59.975Z,62.97
2022-08-03T05:50:59.946Z,60.93
2022-08-03T05:52:21.153Z,63.96
2022-08-03T05:53:00.929Z,66.03
2022-08-03T05:53:59.924Z,63.97
2022-08-03T05:54:59.916Z,63.20
2022-08-03T05:56:13.048Z,61.45
2022-08-03T05:57:01.896Z,61.84
2022-08-03T05:57:59.890Z,69.86
2022-08-03T05:59:16.334Z,63.85
2022-08-03T06:00:01.881Z,62.14
2022-08-03T06:00:59.879Z,62.28
2022-08-03T06:01:59.909Z,62.91
2022-08-03T06:02:59.851Z,66.52
2022-08-03T06:03:59.849Z,63.74
2022-08-03T06:04:59.840Z,64.55
2022-08-03T06:06:00.517Z,62.94
2022-08-03T06:06:59.826Z,62.83
2022-08-03T06:07:59.817Z,61.01
2022-08-03T06:08:59.810Z,59.50
2022-08-03T06:10:34.023Z,61.09
2022-08-03T06:11:00.791Z,59.14
2022-08-03T06:11:59.781Z,63.34
2022-08-03T06:12:59.771Z,60.64
2022-08-03T06:13:59.761Z,60.75
2022-08-03T06:15:00.533Z,61.05
2022-08-03T06:15:59.753Z,58.29
2022-08-03T06:16:59.741Z,62.18
2022-08-03T06:18:02.015Z,62.54
2022-08-03T06:19:00.717Z,62.79
2022-08-03T06:19:59.721Z,63.07
2022-08-03T06:21:14.608Z,63.53
2022-08-03T06:22:00.729Z,63.53
2022-08-03T06:23:00.295Z,62.73
2022-08-03T06:23:59.717Z,61.13
2022-08-03T06:25:04.115Z,60.22
2022-08-03T06:26:00.680Z,61.18
2022-08-03T06:26:59.660Z,60.49
2022-08-03T06:27:59.652Z,64.18
2022-08-03T06:28:59.638Z,63.40
2022-08-03T06:30:00.660Z,64.15
2022-08-03T06:31:00.558Z,66.67
2022-08-03T06:31:59.626Z,64.09
2022-08-03T06:32:59.629Z,61.92
2022-08-03T06:34:33.905Z,64.84
2022-08-03T06:35:00.601Z,64.84
2022-08-03T06:35:59.599Z,58.17
2022-08-03T06:37:02.171Z,60.49
2022-08-03T06:38:00.593Z,61.30
2022-08-03T06:38:59.580Z,61.30
2022-08-03T06:39:59.583Z,62.45
2022-08-03T06:40:59.577Z,63.65
2022-08-03T06:41:59.551Z,61.95
2022-08-03T06:42:59.549Z,61.91
2022-08-03T06:44:03.274Z,62.81
2022-08-03T06:44:59.533Z,62.35
2022-08-03T06:45:59.530Z,61.89
2022-08-03T06:46:59.528Z,62.46
2022-08-03T06:47:59.509Z,61.02
2022-08-03T06:48:59.572Z,60.57
2022-08-03T06:50:12.664Z,62.63
2022-08-03T06:51:00.500Z,61.84
2022-08-03T06:52:06.173Z,61.22
2022-08-03T06:53:00.475Z,64.06
2022-08-03T06:53:59.477Z,58.66
2022-08-03T06:54:59.470Z,62.08
2022-08-03T06:55:59.451Z,61.42
2022-08-03T06:56:59.451Z,64.48
2022-08-03T06:58:00.000Z,63.96
2022-08-03T06:58:59.428Z,61.86
2022-08-03T07:00:09.607Z,61.51
2022-08-03T07:01:00.486Z,64.49
2022-08-03T07:01:59.411Z,63.86
2022-08-03T07:02:59.394Z,58.98
2022-08-03T07:03:59.389Z,61.46
2022-08-03T07:04:59.381Z,61.42
2022-08-03T07:05:59.379Z,64.04
2022-08-03T07:06:59.369Z,60.14
2022-08-03T07:07:59.354Z,63.19
2022-08-03T07:08:59.744Z,61.90
2022-08-03T07:10:00.357Z,62.41
2022-08-03T07:10:59.340Z,61.60
2022-08-03T07:11:59.337Z,61.10
2022-08-03T07:12:59.324Z,61.39
2022-08-03T07:13:59.325Z,61.61
2022-08-03T07:15:01.762Z,60.89
2022-08-03T07:16:00.308Z,60.61
2022-08-03T07:16:59.302Z,62.33
2022-08-03T07:17:59.295Z,62.44
2022-08-03T07:18:59.277Z,63.94
2022-08-03T07:19:59.291Z,63.49
2022-08-03T07:20:59.291Z,64.97
2022-08-03T07:22:02.111Z,61.88
2022-08-03T07:23:00.249Z,63.65
2022-08-03T07:23:59.262Z,60.31
2022-08-03T07:24:59.229Z,62.57
2022-08-03T07:25:59.227Z,62.32
2022-08-03T07:26:59.248Z,62.25
2022-08-03T07:27:59.235Z,62.47
2022-08-03T07:28:59.270Z,61.88
2022-08-03T07:29:59.194Z,61.50
2022-08-03T07:30:59.207Z,62.27
2022-08-03T07:31:59.194Z,64.61
2022-08-03T07:32:59.175Z,63.25
2022-08-03T07:34:00.001Z,62.47
2022-08-03T07:35:00.840Z,63.49
2022-08-03T07:36:00.155Z,62.54
2022-08-03T07:36:59.157Z,60.80
2022-08-03T07:37:59.147Z,60.66
2022-08-03T07:38:59.130Z,60.88
2022-08-03T07:39:59.122Z,59.89
2022-08-03T07:40:59.117Z,62.78
2022-08-03T07:41:59.120Z,60.23
2022-08-03T07:42:59.114Z,62.69
2022-08-03T07:43:59.091Z,60.61
2022-08-03T07:44:59.135Z,62.87
2022-08-03T07:45:59.080Z,62.52
2022-08-03T07:46:59.088Z,62.10
2022-08-03T07:47:59.063Z,62.57
2022-08-03T07:48:59.075Z,62.04
2022-08-03T07:49:59.049Z,62.49
2022-08-03T07:50:59.051Z,61.22
2022-08-03T07:51:59.045Z,62.82
2022-08-03T07:52:59.030Z,64.08
2022-08-03T07:53:59.021Z,61.97
2022-08-03T07:54:59.015Z,62.96
2022-08-03T07:55:59.016Z,62.15
2022-08-03T07:56:59.016Z,64.52
2022-08-03T07:58:01.511Z,61.26
2022-08-03T07:58:59.002Z,62.32
2022-08-03T08:00:02.392Z,62.36
2022-08-03T08:00:59.010Z,63.07
2022-08-03T08:01:58.977Z,62.87
2022-08-03T08:02:58.965Z,66.50
2022-08-03T08:03:58.966Z,61.76
2022-08-03T08:05:03.482Z,61.33
2022-08-03T08:06:00.931Z,61.46
2022-08-03T08:06:58.928Z,61.28
2022-08-03T08:07:58.932Z,61.63
2022-08-03T08:08:58.915Z,61.37
2022-08-03T08:09:58.918Z,62.41
2022-08-03T08:10:58.923Z,60.35
2022-08-03T08:11:58.897Z,60.86
2022-08-03T08:12:58.889Z,61.04
2022-08-03T08:13:58.877Z,60.87
2022-08-03T08:14:58.869Z,59.76
2022-08-03T08:15:58.904Z,63.07
2022-08-03T08:16:58.850Z,61.56
2022-08-03T08:17:58.881Z,59.31
2022-08-03T08:18:58.837Z,60.61
2022-08-03T08:20:31.749Z,62.52
2022-08-03T08:20:58.829Z,62.91
2022-08-03T08:22:02.842Z,63.74
2022-08-03T08:23:01.367Z,61.55
2022-08-03T08:23:58.806Z,56.98
2022-08-03T08:24:58.809Z,61.17
2022-08-03T08:25:58.792Z,60.89
2022-08-03T08:26:58.789Z,62.75
2022-08-03T08:28:29.875Z,61.19
2022-08-03T08:28:59.773Z,61.53
2022-08-03T08:30:07.299Z,60.60
2022-08-03T08:31:00.756Z,62.44
2022-08-03T08:31:58.765Z,60.40
2022-08-03T08:32:58.737Z,61.72
2022-08-03T08:34:04.045Z,61.66
2022-08-03T08:35:01.647Z,62.52
2022-08-03T08:35:58.720Z,63.36
2022-08-03T08:36:58.710Z,61.10
2022-08-03T08:37:58.719Z,61.96
2022-08-03T08:38:59.710Z,59.58
2022-08-03T08:39:58.679Z,60.09
2022-08-03T08:40:59.687Z,61.54
2022-08-03T08:41:58.682Z,59.02
2022-08-03T08:42:59.265Z,60.55
2022-08-03T08:44:00.196Z,62.18
2022-08-03T08:44:59.653Z,61.12
2022-08-03T08:45:58.642Z,62.90
2022-08-03T08:46:58.634Z,62.68
2022-08-03T08:48:01.891Z,61.75
2022-08-03T08:49:00.672Z,62.91
2022-08-03T08:50:09.882Z,62.14
2022-08-03T08:51:00.630Z,62.45
2022-08-03T08:52:01.261Z,61.38
2022-08-03T08:52:58.598Z,62.51
2022-08-03T08:53:58.572Z,61.27
2022-08-03T08:55:00.137Z,62.96
2022-08-03T08:56:00.739Z,62.30
2022-08-03T08:57:00.075Z,62.26
2022-08-03T08:57:58.555Z,64.09
2022-08-03T08:58:58.553Z,60.65
2022-08-03T08:59:58.534Z,62.40
2022-08-03T09:00:58.632Z,62.11
2022-08-03T09:01:58.528Z,61.42
2022-08-03T09:02:58.512Z,62.15
2022-08-03T09:03:58.511Z,65.22
2022-08-03T09:04:59.838Z,61.94
2022-08-03T09:05:58.496Z,62.68
2022-08-03T09:07:18.864Z,60.43
2022-08-03T09:08:00.478Z,61.33
2022-08-03T09:08:58.485Z,61.43
2022-08-03T09:10:11.971Z,59.73
2022-08-03T09:10:59.458Z,61.38
2022-08-03T09:12:14.614Z,59.64
2022-08-03T09:13:00.477Z,61.92
2022-08-03T09:13:58.446Z,59.63
2022-08-03T09:15:15.958Z,60.30
2022-08-03T09:16:01.121Z,57.96
2022-08-03T09:16:58.408Z,61.65
2022-08-03T09:17:58.409Z,62.53
2022-08-03T09:18:58.396Z,65.03
2022-08-03T09:20:03.465Z,61.20
2022-08-03T09:21:03.794Z,61.75
2022-08-03T09:21:59.369Z,60.52
2022-08-03T09:22:58.361Z,62.63
2022-08-03T09:24:03.339Z,62.74
2022-08-03T09:25:22.838Z,62.06
2022-08-03T09:26:01.255Z,61.86
2022-08-03T09:26:58.336Z,61.03
2022-08-03T09:27:58.324Z,64.56
2022-08-03T09:29:04.121Z,61.51
2022-08-03T09:30:00.375Z,64.18
2022-08-03T09:30:58.306Z,62.55
2022-08-03T09:31:59.464Z,61.44
2022-08-03T09:32:58.681Z,62.39
2022-08-03T09:33:58.285Z,61.45
2022-08-03T09:34:58.285Z,62.66
2022-08-03T09:35:59.318Z,63.27
2022-08-03T09:36:58.478Z,60.59
2022-08-03T09:38:12.775Z,60.30
2022-08-03T09:38:59.256Z,60.07
2022-08-03T09:39:58.237Z,61.95
2022-08-03T09:41:00.405Z,61.09
2022-08-03T09:41:59.236Z,62.22
2022-08-03T09:42:58.234Z,61.14
2022-08-03T09:43:58.218Z,60.62
2022-08-03T09:44:58.227Z,58.23
2022-08-03T09:45:58.196Z,60.80
2022-08-03T09:46:58.183Z,65.30
2022-08-03T09:47:59.097Z,61.10
2022-08-03T09:48:58.205Z,62.03
2022-08-03T09:49:58.174Z,62.47
2022-08-03T09:51:14.041Z,63.69
2022-08-03T09:52:37.909Z,65.69
2022-08-03T09:52:59.143Z,64.01
2022-08-03T09:53:59.663Z,61.27
2022-08-03T09:54:58.133Z,61.23
2022-08-03T09:56:34.812Z,63.53
2022-08-03T09:56:59.235Z,61.96
2022-08-03T09:57:58.119Z,62.74
2022-08-03T09:58:58.110Z,61.37
2022-08-03T10:00:04.498Z,64.06
2022-08-03T10:01:00.239Z,63.66
2022-08-03T10:01:58.078Z,60.18
2022-08-03T10:02:58.064Z,63.82
2022-08-03T10:04:03.081Z,63.10
2022-08-03T10:04:59.057Z,59.91
2022-08-03T10:06:00.051Z,62.04
2022-08-03T10:06:59.037Z,61.40
2022-08-03T10:07:58.034Z,61.70
2022-08-03T10:08:58.028Z,60.52
2022-08-03T10:09:58.029Z,60.24
2022-08-03T10:10:59.016Z,62.50
2022-08-03T10:11:58.015Z,62.10
2022-08-03T10:12:57.995Z,61.31
2022-08-03T10:14:01.481Z,59.69
2022-08-03T10:14:57.983Z,61.68
2022-08-03T10:16:23.291Z,60.97
2022-08-03T10:16:59.009Z,63.57
2022-08-03T10:17:57.992Z,61.56
2022-08-03T10:18:57.955Z,59.75
2022-08-03T10:19:57.975Z,62.79
2022-08-03T10:20:58.693Z,64.95
2022-08-03T10:21:57.936Z,62.22
2022-08-03T10:22:57.928Z,61.13
2022-08-03T10:23:57.931Z,60.33
2022-08-03T10:24:57.906Z,60.73
2022-08-03T10:25:57.898Z,58.49
2022-08-03T10:26:57.900Z,61.55
2022-08-03T10:27:57.885Z,60.52
2022-08-03T10:28:57.882Z,62.81
2022-08-03T10:29:57.866Z,62.27
2022-08-03T10:30:57.864Z,63.96
2022-08-03T10:31:58.681Z,62.91
2022-08-03T10:32:57.854Z,63.27
2022-08-03T10:33:57.877Z,59.62
2022-08-03T10:35:00.069Z,60.39
2022-08-03T10:35:58.709Z,62.34
2022-08-03T10:36:57.818Z,61.22
2022-08-03T10:37:58.836Z,60.08
2022-08-03T10:38:57.807Z,62.63
2022-08-03T10:39:59.699Z,59.55
2022-08-03T10:40:59.246Z,60.77
2022-08-03T10:41:59.800Z,60.93
2022-08-03T10:42:57.775Z,58.68
2022-08-03T10:43:57.774Z,59.92
2022-08-03T10:44:57.759Z,58.30
2022-08-03T10:45:57.759Z,60.42
2022-08-03T10:49:05.551Z,59.06
2022-08-03T10:50:07.345Z,59.31
2022-08-03T10:51:07.352Z,62.84
2022-08-03T10:52:31.458Z,62.57
2022-08-03T10:53:08.347Z,61.41
2022-08-03T10:54:10.397Z,63.69
2022-08-03T10:55:10.698Z,59.98
2022-08-03T10:58:13.363Z,62.36
2022-08-03T10:59:14.729Z,62.16
2022-08-03T11:00:14.349Z,64.55
2022-08-03T11:01:14.548Z,63.23
2022-08-03T11:02:14.456Z,63.54
2022-08-03T11:03:14.488Z,60.20
2022-08-03T11:04:16.987Z,61.66
2022-08-03T11:05:15.412Z,62.78
2022-08-03T11:06:14.396Z,62.36
2022-08-03T11:07:15.466Z,60.16
2022-08-03T11:08:14.383Z,63.96
2022-08-03T11:09:15.231Z,60.02
2022-08-03T11:10:14.362Z,60.31
2022-08-03T11:11:14.366Z,60.21
2022-08-03T11:12:14.354Z,60.20
2022-08-03T11:13:14.341Z,60.10
2022-08-03T11:14:14.342Z,60.32
2022-08-03T11:15:14.332Z,59.14
2022-08-03T11:16:18.383Z,60.53
2022-08-03T11:17:16.744Z,59.21
2022-08-03T11:18:14.304Z,61.23
2022-08-03T11:19:14.299Z,64.50
2022-08-03T11:20:14.296Z,62.81
2022-08-03T11:21:14.284Z,63.18
2022-08-03T11:22:14.270Z,60.78
2022-08-03T11:23:14.282Z,63.27
2022-08-03T11:24:14.253Z,61.28
2022-08-03T11:25:53.686Z,63.30
2022-08-03T11:26:15.271Z,62.23
2022-08-03T11:27:14.235Z,62.01
2022-08-03T11:28:14.230Z,60.89
2022-08-03T11:29:14.226Z,63.19
2022-08-03T11:30:14.211Z,62.59
2022-08-03T11:31:32.733Z,60.90
2022-08-03T11:32:19.512Z,62.27
2022-08-03T11:33:15.186Z,61.81
2022-08-03T11:34:14.187Z,60.59
2022-08-03T11:35:14.174Z,62.20
2022-08-03T11:36:14.161Z,61.32
2022-08-03T11:37:15.155Z,59.62
2022-08-03T11:38:14.147Z,62.21
2022-08-03T11:39:16.619Z,59.50
2022-08-03T11:40:14.139Z,60.34
2022-08-03T11:41:14.125Z,59.20
2022-08-03T11:42:14.147Z,60.78
2022-08-03T11:43:15.767Z,61.93
2022-08-03T11:44:14.110Z,59.36
2022-08-03T11:45:14.092Z,59.50
2022-08-03T11:46:14.088Z,59.06
2022-08-03T11:47:15.078Z,58.72
2022-08-03T11:48:14.824Z,59.12
2022-08-03T11:49:14.124Z,59.71
2022-08-03T11:50:14.058Z,61.71
2022-08-03T11:51:14.048Z,63.29
2022-08-03T11:52:14.040Z,62.72
2022-08-03T11:53:14.039Z,62.95
2022-08-03T11:54:14.023Z,64.25
2022-08-03T11:55:14.011Z,62.06
2022-08-03T11:56:14.029Z,62.57
2022-08-03T11:57:14.009Z,62.96
2022-08-03T11:58:58.315Z,61.96
2022-08-03T11:59:20.737Z,65.40
2022-08-03T12:00:14.982Z,63.91
2022-08-03T12:01:14.003Z,62.69
2022-08-03T12:02:13.980Z,62.37
2022-08-03T12:03:14.057Z,68.59
2022-08-03T12:04:13.954Z,63.53
2022-08-03T12:05:14.002Z,61.90
2022-08-03T12:06:13.931Z,62.31
2022-08-03T12:07:13.928Z,58.14
2022-08-03T12:08:14.916Z,57.62
2022-08-03T12:09:13.931Z,61.53
2022-08-03T12:10:13.896Z,63.33
2022-08-03T12:11:13.875Z,58.27
2022-08-03T12:12:14.895Z,62.32
2022-08-03T12:14:44.751Z,61.74
2022-08-03T12:14:49.235Z,62.15
2022-08-03T12:15:14.855Z,62.20
2022-08-03T12:16:13.881Z,60.20
2022-08-03T12:17:13.847Z,59.82
2022-08-03T12:18:13.839Z,60.91
2022-08-03T12:19:13.830Z,62.44
2022-08-03T12:20:13.846Z,64.02
2022-08-03T12:21:13.809Z,62.49
2022-08-03T12:22:13.802Z,62.78
2022-08-03T12:23:13.805Z,63.29
2022-08-03T12:24:13.801Z,61.96
2022-08-03T12:25:13.779Z,62.98
2022-08-03T12:26:13.769Z,61.90
2022-08-03T12:27:13.764Z,61.63
2022-08-03T12:28:30.354Z,60.41
2022-08-03T12:29:14.761Z,63.65
2022-08-03T12:30:13.742Z,64.71
2022-08-03T12:31:14.348Z,60.47
2022-08-03T12:32:13.727Z,61.06
2022-08-03T12:33:13.721Z,62.36
2022-08-03T12:34:13.719Z,62.59
2022-08-03T12:35:13.705Z,63.71
2022-08-03T12:36:13.688Z,64.52
2022-08-03T12:37:21.973Z,60.74
2022-08-03T12:38:14.675Z,62.58
2022-08-03T12:39:13.689Z,59.67
2022-08-03T12:40:17.782Z,60.58
2022-08-03T12:41:15.653Z,61.62
2022-08-03T12:42:13.652Z,61.72
2022-08-03T12:43:13.648Z,60.85
2022-08-03T12:44:13.647Z,61.05
2022-08-03T12:45:13.649Z,61.16
2022-08-03T12:46:13.642Z,60.60
2022-08-03T12:47:13.610Z,61.18
2022-08-03T12:48:13.657Z,60.35
2022-08-03T12:49:15.487Z,59.73
2022-08-03T12:50:13.612Z,60.80
2022-08-03T12:51:13.713Z,58.23
2022-08-03T12:52:13.574Z,61.23
2022-08-03T12:53:13.680Z,60.13
2022-08-03T12:54:13.591Z,63.09
2022-08-03T12:55:13.555Z,61.14
2022-08-03T12:56:13.544Z,58.92
2022-08-03T12:57:16.165Z,63.20
2022-08-03T12:58:18.633Z,62.51
2022-08-03T12:59:15.529Z,63.74
2022-08-03T13:00:28.631Z,66.48
2022-08-03T13:01:14.536Z,62.58